sensor_id;sensor_type;location;lat;lon;timestamp;temperature;humidity
69009;SHT31;56065;52.472;13.380;2023-10-08T00:01:35;14.71;88.58
69009;SHT31;56065;52.472;13.380;2023-10-08T00:04:00;14.73;88.56
69009;SHT31;56065;52.472;13.380;2023-10-08T00:06:29;14.71;88.62
69009;SHT31;56065;52.472;13.380;2023-10-08T00:08:55;14.73;88.78
69009;SHT31;56065;52.472;13.380;2023-10-08T00:11:26;14.73;88.62
69009;SHT31;56065;52.472;13.380;2023-10-08T00:13:54;14.74;88.48
69009;SHT31;56065;52.472;13.380;2023-10-08T00:16:21;14.73;88.60
69009;SHT31;56065;52.472;13.380;2023-10-08T00:18:47;14.70;88.94
69009;SHT31;56065;52.472;13.380;2023-10-08T00:21:20;14.73;88.72
69009;SHT31;56065;52.472;13.380;2023-10-08T00:23:51;14.73;88.77
69009;SHT31;56065;52.472;13.380;2023-10-08T00:26:27;14.71;88.70
69009;SHT31;56065;52.472;13.380;2023-10-08T00:29:02;14.74;88.58
69009;SHT31;56065;52.472;13.380;2023-10-08T00:31:44;14.75;88.56
69009;SHT31;56065;52.472;13.380;2023-10-08T00:34:13;14.71;88.40
69009;SHT31;56065;52.472;13.380;2023-10-08T00:36:45;14.73;88.59
69009;SHT31;56065;52.472;13.380;2023-10-08T00:39:11;14.73;88.48
69009;SHT31;56065;52.472;13.380;2023-10-08T00:41:44;14.70;88.40
69009;SHT31;56065;52.472;13.380;2023-10-08T00:44:11;14.70;87.93
69009;SHT31;56065;52.472;13.380;2023-10-08T00:46:46;14.59;88.55
69009;SHT31;56065;52.472;13.380;2023-10-08T00:49:16;14.56;88.42
69009;SHT31;56065;52.472;13.380;2023-10-08T00:51:45;14.54;88.46
69009;SHT31;56065;52.472;13.380;2023-10-08T00:54:12;14.51;88.30
69009;SHT31;56065;52.472;13.380;2023-10-08T00:56:45;14.41;88.70
69009;SHT31;56065;52.472;13.380;2023-10-08T00:59:18;14.46;88.63
69009;SHT31;56065;52.472;13.380;2023-10-08T01:01:47;14.48;88.66
69009;SHT31;56065;52.472;13.380;2023-10-08T01:04:20;14.48;88.54
69009;SHT31;56065;52.472;13.380;2023-10-08T01:06:53;14.47;88.20
69009;SHT31;56065;52.472;13.380;2023-10-08T01:09:25;14.41;88.35
69009;SHT31;56065;52.472;13.380;2023-10-08T01:14:45;14.34;88.94
69009;SHT31;56065;52.472;13.380;2023-10-08T01:17:13;14.38;88.72
69009;SHT31;56065;52.472;13.380;2023-10-08T01:19:44;14.38;88.81
69009;SHT31;56065;52.472;13.380;2023-10-08T01:22:12;14.40;88.84
69009;SHT31;56065;52.472;13.380;2023-10-08T01:24:53;14.38;88.90
69009;SHT31;56065;52.472;13.380;2023-10-08T01:27:18;14.37;88.61
69009;SHT31;56065;52.472;13.380;2023-10-08T01:29:50;14.36;88.68
69009;SHT31;56065;52.472;13.380;2023-10-08T01:32:20;14.37;88.57
69009;SHT31;56065;52.472;13.380;2023-10-08T01:34:46;14.40;88.61
69009;SHT31;56065;52.472;13.380;2023-10-08T01:37:16;14.40;88.67
69009;SHT31;56065;52.472;13.380;2023-10-08T01:39:45;14.38;88.61
69009;SHT31;56065;52.472;13.380;2023-10-08T01:42:14;14.36;88.37
69009;SHT31;56065;52.472;13.380;2023-10-08T01:44:47;14.30;88.72
69009;SHT31;56065;52.472;13.380;2023-10-08T01:47:13;14.34;88.49
69009;SHT31;56065;52.472;13.380;2023-10-08T01:49:39;14.33;88.68
69009;SHT31;56065;52.472;13.380;2023-10-08T01:52:06;14.27;88.69
69009;SHT31;56065;52.472;13.380;2023-10-08T01:54:44;14.29;88.50
69009;SHT31;56065;52.472;13.380;2023-10-08T01:57:10;14.26;88.52
69009;SHT31;56065;52.472;13.380;2023-10-08T01:59:35;14.22;88.50
69009;SHT31;56065;52.472;13.380;2023-10-08T02:02:03;14.19;88.60
69009;SHT31;56065;52.472;13.380;2023-10-08T02:04:31;14.17;89.03
69009;SHT31;56065;52.472;13.380;2023-10-08T02:06:56;14.16;88.54
69009;SHT31;56065;52.472;13.380;2023-10-08T02:09:21;14.16;88.80
69009;SHT31;56065;52.472;13.380;2023-10-08T02:11:52;14.12;89.11
69009;SHT31;56065;52.472;13.380;2023-10-08T02:14:20;14.15;88.97
69009;SHT31;56065;52.472;13.380;2023-10-08T02:16:46;14.13;88.61
69009;SHT31;56065;52.472;13.380;2023-10-08T02:19:12;14.12;88.96
69009;SHT31;56065;52.472;13.380;2023-10-08T02:21:38;14.15;89.09
69009;SHT31;56065;52.472;13.380;2023-10-08T02:24:06;14.16;88.92
69009;SHT31;56065;52.472;13.380;2023-10-08T02:26:32;14.13;89.19
69009;SHT31;56065;52.472;13.380;2023-10-08T02:29:05;14.13;89.29
69009;SHT31;56065;52.472;13.380;2023-10-08T02:31:40;14.13;89.29
69009;SHT31;56065;52.472;13.380;2023-10-08T02:34:09;14.15;89.22
69009;SHT31;56065;52.472;13.380;2023-10-08T02:36:38;14.06;89.32
69009;SHT31;56065;52.472;13.380;2023-10-08T02:39:06;14.12;89.39
69009;SHT31;56065;52.472;13.380;2023-10-08T02:41:42;14.13;89.12
69009;SHT31;56065;52.472;13.380;2023-10-08T02:44:08;14.12;89.33
69009;SHT31;56065;52.472;13.380;2023-10-08T02:46:45;14.12;89.27
69009;SHT31;56065;52.472;13.380;2023-10-08T02:49:14;14.13;88.89
69009;SHT31;56065;52.472;13.380;2023-10-08T02:51:45;14.12;89.28
69009;SHT31;56065;52.472;13.380;2023-10-08T02:54:11;14.15;89.19
69009;SHT31;56065;52.472;13.380;2023-10-08T02:56:52;14.15;89.20
69009;SHT31;56065;52.472;13.380;2023-10-08T02:59:22;14.20;89.35
69009;SHT31;56065;52.472;13.380;2023-10-08T03:01:48;14.23;89.43
69009;SHT31;56065;52.472;13.380;2023-10-08T03:04:21;14.27;89.35
69009;SHT31;56065;52.472;13.380;2023-10-08T03:06:49;14.33;89.33
69009;SHT31;56065;52.472;13.380;2023-10-08T03:09:22;14.30;89.25
69009;SHT31;56065;52.472;13.380;2023-10-08T03:11:56;14.34;89.08
69009;SHT31;56065;52.472;13.380;2023-10-08T03:14:23;14.34;88.91
69009;SHT31;56065;52.472;13.380;2023-10-08T03:16:53;14.32;89.08
69009;SHT31;56065;52.472;13.380;2023-10-08T03:19:21;14.33;89.04
69009;SHT31;56065;52.472;13.380;2023-10-08T03:21:47;14.32;88.85
69009;SHT31;56065;52.472;13.380;2023-10-08T03:24:23;14.30;88.43
69009;SHT31;56065;52.472;13.380;2023-10-08T03:26:58;14.23;88.63
69009;SHT31;56065;52.472;13.380;2023-10-08T03:29:41;14.12;89.23
69009;SHT31;56065;52.472;13.380;2023-10-08T03:32:11;14.09;89.14
69009;SHT31;56065;52.472;13.380;2023-10-08T03:34:46;14.16;89.26
69009;SHT31;56065;52.472;13.380;2023-10-08T03:37:21;14.08;89.06
69009;SHT31;56065;52.472;13.380;2023-10-08T03:39:54;14.09;89.24
69009;SHT31;56065;52.472;13.380;2023-10-08T03:42:26;14.10;89.07
69009;SHT31;56065;52.472;13.380;2023-10-08T03:44:59;14.09;89.28
69009;SHT31;56065;52.472;13.380;2023-10-08T03:47:35;14.09;89.12
69009;SHT31;56065;52.472;13.380;2023-10-08T03:50:04;14.08;89.06
69009;SHT31;56065;52.472;13.380;2023-10-08T03:52:31;14.06;89.40
69009;SHT31;56065;52.472;13.380;2023-10-08T03:54:56;14.02;89.23
69009;SHT31;56065;52.472;13.380;2023-10-08T03:57:45;14.01;89.48
69009;SHT31;56065;52.472;13.380;2023-10-08T04:00:14;13.99;89.43
69009;SHT31;56065;52.472;13.380;2023-10-08T04:02:53;14.03;89.26
69009;SHT31;56065;52.472;13.380;2023-10-08T04:05:26;14.02;89.18
69009;SHT31;56065;52.472;13.380;2023-10-08T04:08:06;14.03;89.34
69009;SHT31;56065;52.472;13.380;2023-10-08T04:10:42;14.01;89.30
69009;SHT31;56065;52.472;13.380;2023-10-08T04:13:08;13.98;89.56
69009;SHT31;56065;52.472;13.380;2023-10-08T04:15:35;13.98;89.36
69009;SHT31;56065;52.472;13.380;2023-10-08T04:18:08;13.92;89.44
69009;SHT31;56065;52.472;13.380;2023-10-08T04:20:34;13.90;89.47
69009;SHT31;56065;52.472;13.380;2023-10-08T04:23:06;13.83;89.39
69009;SHT31;56065;52.472;13.380;2023-10-08T04:25:39;13.81;89.54
69009;SHT31;56065;52.472;13.380;2023-10-08T04:28:04;13.82;89.59
69009;SHT31;56065;52.472;13.380;2023-10-08T04:30:34;13.75;89.51
69009;SHT31;56065;52.472;13.380;2023-10-08T04:33:01;13.74;89.66
69009;SHT31;56065;52.472;13.380;2023-10-08T04:35:33;13.72;89.53
69009;SHT31;56065;52.472;13.380;2023-10-08T04:38:05;13.76;89.60
69009;SHT31;56065;52.472;13.380;2023-10-08T04:40:35;13.75;90.17
69009;SHT31;56065;52.472;13.380;2023-10-08T04:43:06;13.76;89.75
69009;SHT31;56065;52.472;13.380;2023-10-08T04:45:35;13.75;89.87
69009;SHT31;56065;52.472;13.380;2023-10-08T04:48:03;13.76;90.07
69009;SHT31;56065;52.472;13.380;2023-10-08T04:50:29;13.75;89.73
69009;SHT31;56065;52.472;13.380;2023-10-08T04:52:55;13.81;89.68
69009;SHT31;56065;52.472;13.380;2023-10-08T04:55:25;13.71;89.57
69009;SHT31;56065;52.472;13.380;2023-10-08T04:57:55;13.62;89.37
69009;SHT31;56065;52.472;13.380;2023-10-08T05:00:21;13.54;89.34
69009;SHT31;56065;52.472;13.380;2023-10-08T05:03:06;13.47;89.36
69009;SHT31;56065;52.472;13.380;2023-10-08T05:05:40;13.38;89.86
69009;SHT31;56065;52.472;13.380;2023-10-08T05:08:21;13.28;89.79
69009;SHT31;56065;52.472;13.380;2023-10-08T05:11:12;13.17;90.11
69009;SHT31;56065;52.472;13.380;2023-10-08T05:13:50;13.11;90.39
69009;SHT31;56065;52.472;13.380;2023-10-08T05:16:27;13.07;90.65
69009;SHT31;56065;52.472;13.380;2023-10-08T05:19:09;13.06;90.98
69009;SHT31;56065;52.472;13.380;2023-10-08T05:22:11;13.03;90.65
69009;SHT31;56065;52.472;13.380;2023-10-08T05:24:48;12.96;90.52
69009;SHT31;56065;52.472;13.380;2023-10-08T05:27:34;12.89;90.65
69009;SHT31;56065;52.472;13.380;2023-10-08T05:30:28;12.80;90.53
69009;SHT31;56065;52.472;13.380;2023-10-08T05:32:57;12.75;90.56
69009;SHT31;56065;52.472;13.380;2023-10-08T05:35:29;12.73;90.91
69009;SHT31;56065;52.472;13.380;2023-10-08T05:38:22;12.75;90.90
69009;SHT31;56065;52.472;13.380;2023-10-08T05:40:49;12.82;91.14
69009;SHT31;56065;52.472;13.380;2023-10-08T05:43:42;12.92;91.04
69009;SHT31;56065;52.472;13.380;2023-10-08T05:48:51;13.04;90.53
69009;SHT31;56065;52.472;13.380;2023-10-08T05:51:41;13.10;90.37
69009;SHT31;56065;52.472;13.380;2023-10-08T05:54:17;13.14;90.32
69009;SHT31;56065;52.472;13.380;2023-10-08T05:56:55;13.23;90.17
69009;SHT31;56065;52.472;13.380;2023-10-08T05:59:46;13.54;90.40
69009;SHT31;56065;52.472;13.380;2023-10-08T06:02:30;14.44;90.02
69009;SHT31;56065;52.472;13.380;2023-10-08T06:04:59;15.65;87.65
69009;SHT31;56065;52.472;13.380;2023-10-08T06:07:45;16.79;85.39
69009;SHT31;56065;52.472;13.380;2023-10-08T06:10:23;17.86;83.52
69009;SHT31;56065;52.472;13.380;2023-10-08T06:12:58;18.57;80.94
69009;SHT31;56065;52.472;13.380;2023-10-08T06:15:37;18.39;79.22
69009;SHT31;56065;52.472;13.380;2023-10-08T06:18:18;17.73;79.67
69009;SHT31;56065;52.472;13.380;2023-10-08T06:20:45;17.26;80.18
69009;SHT31;56065;52.472;13.380;2023-10-08T06:23:11;17.03;81.31
69009;SHT31;56065;52.472;13.380;2023-10-08T06:25:39;16.92;81.45
69009;SHT31;56065;52.472;13.380;2023-10-08T06:28:17;16.87;81.94
69009;SHT31;56065;52.472;13.380;2023-10-08T06:33:11;17.02;81.64
69009;SHT31;56065;52.472;13.380;2023-10-08T06:35:37;16.93;81.87
69009;SHT31;56065;52.472;13.380;2023-10-08T06:38:02;16.79;81.64
69009;SHT31;56065;52.472;13.380;2023-10-08T06:40:34;16.51;81.71
69009;SHT31;56065;52.472;13.380;2023-10-08T06:43:06;16.55;82.11
69009;SHT31;56065;52.472;13.380;2023-10-08T06:45:43;16.68;81.94
69009;SHT31;56065;52.472;13.380;2023-10-08T06:48:09;16.71;81.31
69009;SHT31;56065;52.472;13.380;2023-10-08T06:50:35;16.75;81.51
69009;SHT31;56065;52.472;13.380;2023-10-08T06:53:02;16.89;81.14
69009;SHT31;56065;52.472;13.380;2023-10-08T06:55:33;17.12;81.06
69009;SHT31;56065;52.472;13.380;2023-10-08T06:58:01;17.31;80.79
69009;SHT31;56065;52.472;13.380;2023-10-08T07:00:26;18.08;80.29
69009;SHT31;56065;52.472;13.380;2023-10-08T07:03:06;20.07;78.19
69009;SHT31;56065;52.472;13.380;2023-10-08T07:05:33;21.06;74.65
69009;SHT31;56065;52.472;13.380;2023-10-08T07:08:02;21.74;71.30
69009;SHT31;56065;52.472;13.380;2023-10-08T07:10:34;22.35;71.61
69009;SHT31;56065;52.472;13.380;2023-10-08T07:13:00;22.99;69.55
69009;SHT31;56065;52.472;13.380;2023-10-08T07:15:28;24.05;67.99
69009;SHT31;56065;52.472;13.380;2023-10-08T07:17:55;25.28;67.17
69009;SHT31;56065;52.472;13.380;2023-10-08T07:20:21;26.54;64.32
69009;SHT31;56065;52.472;13.380;2023-10-08T07:22:49;27.60;62.38
69009;SHT31;56065;52.472;13.380;2023-10-08T07:25:23;28.00;60.49
69009;SHT31;56065;52.472;13.380;2023-10-08T07:27:48;27.88;60.29
69009;SHT31;56065;52.472;13.380;2023-10-08T07:30:15;28.46;58.75
69009;SHT31;56065;52.472;13.380;2023-10-08T07:32:52;29.10;58.19
69009;SHT31;56065;52.472;13.380;2023-10-08T07:35:20;28.44;57.06
69009;SHT31;56065;52.472;13.380;2023-10-08T07:37:45;26.81;58.25
69009;SHT31;56065;52.472;13.380;2023-10-08T07:40:12;25.14;60.02
69009;SHT31;56065;52.472;13.380;2023-10-08T07:42:38;23.43;61.91
69009;SHT31;56065;52.472;13.380;2023-10-08T07:45:04;22.24;64.28
69009;SHT31;56065;52.472;13.380;2023-10-08T07:47:30;21.57;65.75
69009;SHT31;56065;52.472;13.380;2023-10-08T07:49:56;21.10;66.74
69009;SHT31;56065;52.472;13.380;2023-10-08T07:52:21;21.06;66.85
69009;SHT31;56065;52.472;13.380;2023-10-08T07:54:46;21.36;66.96
69009;SHT31;56065;52.472;13.380;2023-10-08T07:57:13;21.78;66.76
69009;SHT31;56065;52.472;13.380;2023-10-08T07:59:43;22.00;66.43
69009;SHT31;56065;52.472;13.380;2023-10-08T08:02:14;23.51;65.28
69009;SHT31;56065;52.472;13.380;2023-10-08T08:04:41;25.55;61.97
69009;SHT31;56065;52.472;13.380;2023-10-08T08:07:08;27.29;58.90
69009;SHT31;56065;52.472;13.380;2023-10-08T08:09:42;28.60;55.15
69009;SHT31;56065;52.472;13.380;2023-10-08T08:12:13;29.59;54.40
69009;SHT31;56065;52.472;13.380;2023-10-08T08:14:38;30.44;53.36
69009;SHT31;56065;52.472;13.380;2023-10-08T08:17:07;30.96;51.66
69009;SHT31;56065;52.472;13.380;2023-10-08T08:19:46;31.84;50.03
69009;SHT31;56065;52.472;13.380;2023-10-08T08:22:16;32.47;50.10
69009;SHT31;56065;52.472;13.380;2023-10-08T08:24:49;33.15;49.65
69009;SHT31;56065;52.472;13.380;2023-10-08T08:27:19;33.86;48.76
69009;SHT31;56065;52.472;13.380;2023-10-08T08:29:52;34.58;48.08
69009;SHT31;56065;52.472;13.380;2023-10-08T08:32:22;35.07;45.81
69009;SHT31;56065;52.472;13.380;2023-10-08T08:34:48;35.46;45.66
69009;SHT31;56065;52.472;13.380;2023-10-08T08:37:16;36.05;45.22
69009;SHT31;56065;52.472;13.380;2023-10-08T08:39:41;36.36;43.80
69009;SHT31;56065;52.472;13.380;2023-10-08T08:42:07;36.22;42.70
69009;SHT31;56065;52.472;13.380;2023-10-08T08:44:40;36.55;42.65
69009;SHT31;56065;52.472;13.380;2023-10-08T08:47:13;36.94;42.37
69009;SHT31;56065;52.472;13.380;2023-10-08T08:49:45;37.10;41.60
69009;SHT31;56065;52.472;13.380;2023-10-08T08:52:11;36.90;40.42
69009;SHT31;56065;52.472;13.380;2023-10-08T08:54:38;36.31;39.92
69009;SHT31;56065;52.472;13.380;2023-10-08T08:57:04;35.77;39.85
69009;SHT31;56065;52.472;13.380;2023-10-08T08:59:31;35.68;41.40
69009;SHT31;56065;52.472;13.380;2023-10-08T09:01:58;36.25;41.77
69009;SHT31;56065;52.472;13.380;2023-10-08T09:04:31;36.55;41.58
69009;SHT31;56065;52.472;13.380;2023-10-08T09:07:00;36.94;38.92
69009;SHT31;56065;52.472;13.380;2023-10-08T09:09:35;36.94;38.21
69009;SHT31;56065;52.472;13.380;2023-10-08T09:12:05;36.86;38.62
69009;SHT31;56065;52.472;13.380;2023-10-08T09:14:30;36.68;38.99
69009;SHT31;56065;52.472;13.380;2023-10-08T09:17:00;36.50;38.04
69009;SHT31;56065;52.472;13.380;2023-10-08T09:19:26;36.21;38.30
69009;SHT31;56065;52.472;13.380;2023-10-08T09:22:07;36.55;38.67
69009;SHT31;56065;52.472;13.380;2023-10-08T09:24:34;37.11;38.50
69009;SHT31;56065;52.472;13.380;2023-10-08T09:27:05;37.60;38.78
69009;SHT31;56065;52.472;13.380;2023-10-08T09:29:32;37.85;38.49
69009;SHT31;56065;52.472;13.380;2023-10-08T09:31:58;37.88;37.44
69009;SHT31;56065;52.472;13.380;2023-10-08T09:34:28;37.72;36.86
69009;SHT31;56065;52.472;13.380;2023-10-08T09:36:56;37.64;35.94
69009;SHT31;56065;52.472;13.380;2023-10-08T09:39:22;37.85;36.83
69009;SHT31;56065;52.472;13.380;2023-10-08T09:41:53;38.06;36.19
69009;SHT31;56065;52.472;13.380;2023-10-08T09:44:21;38.12;36.09
69009;SHT31;56065;52.472;13.380;2023-10-08T09:46:53;38.33;36.83
69009;SHT31;56065;52.472;13.380;2023-10-08T09:49:30;38.26;33.86
69009;SHT31;56065;52.472;13.380;2023-10-08T09:52:00;38.39;35.40
69009;SHT31;56065;52.472;13.380;2023-10-08T09:54:31;38.80;35.15
69009;SHT31;56065;52.472;13.380;2023-10-08T09:57:03;39.03;35.51
69009;SHT31;56065;52.472;13.380;2023-10-08T09:59:29;38.97;34.92
69009;SHT31;56065;52.472;13.380;2023-10-08T10:01:55;38.93;34.68
69009;SHT31;56065;52.472;13.380;2023-10-08T10:04:25;39.28;33.79
69009;SHT31;56065;52.472;13.380;2023-10-08T10:06:50;39.11;33.23
69009;SHT31;56065;52.472;13.380;2023-10-08T10:09:25;38.86;34.54
69009;SHT31;56065;52.472;13.380;2023-10-08T10:11:53;38.64;34.40
69009;SHT31;56065;52.472;13.380;2023-10-08T10:14:22;38.90;34.96
69009;SHT31;56065;52.472;13.380;2023-10-08T10:17:10;38.93;32.84
69009;SHT31;56065;52.472;13.380;2023-10-08T10:19:37;38.86;33.40
69009;SHT31;56065;52.472;13.380;2023-10-08T10:22:03;39.04;33.45
69009;SHT31;56065;52.472;13.380;2023-10-08T10:24:35;39.07;32.60
69009;SHT31;56065;52.472;13.380;2023-10-08T10:27:13;39.08;32.91
69009;SHT31;56065;52.472;13.380;2023-10-08T10:29:40;39.07;33.59
69009;SHT31;56065;52.472;13.380;2023-10-08T10:32:10;39.28;31.80
69009;SHT31;56065;52.472;13.380;2023-10-08T10:34:39;38.76;32.66
69009;SHT31;56065;52.472;13.380;2023-10-08T10:37:04;38.49;32.73
69009;SHT31;56065;52.472;13.380;2023-10-08T10:39:52;38.27;33.27
69009;SHT31;56065;52.472;13.380;2023-10-08T10:42:20;38.43;32.35
69009;SHT31;56065;52.472;13.380;2023-10-08T10:44:46;38.33;32.67
69009;SHT31;56065;52.472;13.380;2023-10-08T10:47:15;38.08;32.63
69009;SHT31;56065;52.472;13.380;2023-10-08T10:49:41;38.32;32.48
69009;SHT31;56065;52.472;13.380;2023-10-08T10:52:26;37.81;31.97
69009;SHT31;56065;52.472;13.380;2023-10-08T10:55:04;38.36;31.89
69009;SHT31;56065;52.472;13.380;2023-10-08T10:57:47;38.55;32.65
69009;SHT31;56065;52.472;13.380;2023-10-08T11:00:42;38.70;32.60
69009;SHT31;56065;52.472;13.380;2023-10-08T11:03:08;38.70;32.54
69009;SHT31;56065;52.472;13.380;2023-10-08T11:05:49;38.52;32.75
69009;SHT31;56065;52.472;13.380;2023-10-08T11:08:17;38.83;32.58
69009;SHT31;56065;52.472;13.380;2023-10-08T11:10:48;38.52;32.59
69009;SHT31;56065;52.472;13.380;2023-10-08T11:13:21;38.36;32.00
69009;SHT31;56065;52.472;13.380;2023-10-08T11:15:54;37.81;32.72
69009;SHT31;56065;52.472;13.380;2023-10-08T11:18:25;37.74;32.84
69009;SHT31;56065;52.472;13.380;2023-10-08T11:20:53;37.79;32.40
69009;SHT31;56065;52.472;13.380;2023-10-08T11:23:44;37.71;33.11
69009;SHT31;56065;52.472;13.380;2023-10-08T11:26:19;37.77;33.45
69009;SHT31;56065;52.472;13.380;2023-10-08T11:28:45;38.04;33.25
69009;SHT31;56065;52.472;13.380;2023-10-08T11:31:19;38.02;31.50
69009;SHT31;56065;52.472;13.380;2023-10-08T11:33:46;37.68;31.38
69009;SHT31;56065;52.472;13.380;2023-10-08T11:36:23;37.68;31.92
69009;SHT31;56065;52.472;13.380;2023-10-08T11:38:56;37.65;32.18
69009;SHT31;56065;52.472;13.380;2023-10-08T11:41:28;37.60;31.90
69009;SHT31;56065;52.472;13.380;2023-10-08T11:44:07;37.30;31.92
69009;SHT31;56065;52.472;13.380;2023-10-08T11:46:38;37.33;32.54
69009;SHT31;56065;52.472;13.380;2023-10-08T11:49:08;36.94;33.14
69009;SHT31;56065;52.472;13.380;2023-10-08T11:51:43;37.07;33.45
69009;SHT31;56065;52.472;13.380;2023-10-08T11:54:08;37.23;33.53
69009;SHT31;56065;52.472;13.380;2023-10-08T11:56:37;36.05;32.93
69009;SHT31;56065;52.472;13.380;2023-10-08T11:59:03;34.92;32.57
69009;SHT31;56065;52.472;13.380;2023-10-08T12:01:34;34.47;34.29
69009;SHT31;56065;52.472;13.380;2023-10-08T12:04:01;34.28;34.11
69009;SHT31;56065;52.472;13.380;2023-10-08T12:06:26;34.69;33.82
69009;SHT31;56065;52.472;13.380;2023-10-08T12:08:55;34.75;33.26
69009;SHT31;56065;52.472;13.380;2023-10-08T12:11:24;35.09;33.96
69009;SHT31;56065;52.472;13.380;2023-10-08T12:13:56;35.27;34.89
69009;SHT31;56065;52.472;13.380;2023-10-08T12:16:22;35.85;34.47
69009;SHT31;56065;52.472;13.380;2023-10-08T12:18:48;35.95;33.63
69009;SHT31;56065;52.472;13.380;2023-10-08T12:21:18;35.67;33.76
69009;SHT31;56065;52.472;13.380;2023-10-08T12:23:43;35.04;33.93
69009;SHT31;56065;52.472;13.380;2023-10-08T12:26:10;34.68;34.45
69009;SHT31;56065;52.472;13.380;2023-10-08T12:28:41;33.91;33.07
69009;SHT31;56065;52.472;13.380;2023-10-08T12:31:07;33.54;34.35
69009;SHT31;56065;52.472;13.380;2023-10-08T12:33:35;33.29;34.86
69009;SHT31;56065;52.472;13.380;2023-10-08T12:36:01;33.52;35.17
69009;SHT31;56065;52.472;13.380;2023-10-08T12:38:36;33.64;35.27
69009;SHT31;56065;52.472;13.380;2023-10-08T12:41:01;33.67;35.68
69009;SHT31;56065;52.472;13.380;2023-10-08T12:43:37;33.52;35.09
69009;SHT31;56065;52.472;13.380;2023-10-08T12:46:04;33.02;34.85
69009;SHT31;56065;52.472;13.380;2023-10-08T12:48:30;32.14;34.90
69009;SHT31;56065;52.472;13.380;2023-10-08T12:50:55;31.45;35.55
69009;SHT31;56065;52.472;13.380;2023-10-08T12:53:28;30.25;36.03
69009;SHT31;56065;52.472;13.380;2023-10-08T12:56:00;29.43;37.58
69009;SHT31;56065;52.472;13.380;2023-10-08T12:58:32;29.17;38.08
69009;SHT31;56065;52.472;13.380;2023-10-08T13:01:03;28.77;37.97
69009;SHT31;56065;52.472;13.380;2023-10-08T13:03:29;28.65;37.94
69009;SHT31;56065;52.472;13.380;2023-10-08T13:05:59;28.12;38.14
69009;SHT31;56065;52.472;13.380;2023-10-08T13:08:37;27.13;39.34
69009;SHT31;56065;52.472;13.380;2023-10-08T13:11:02;26.41;40.95
69009;SHT31;56065;52.472;13.380;2023-10-08T13:13:29;25.76;41.53
69009;SHT31;56065;52.472;13.380;2023-10-08T13:15:55;25.36;41.60
69009;SHT31;56065;52.472;13.380;2023-10-08T13:18:25;24.88;43.29
69009;SHT31;56065;52.472;13.380;2023-10-08T13:20:53;24.41;43.32
69009;SHT31;56065;52.472;13.380;2023-10-08T13:23:19;24.04;42.90
69009;SHT31;56065;52.472;13.380;2023-10-08T13:25:52;23.79;42.92
69009;SHT31;56065;52.472;13.380;2023-10-08T13:28:21;23.44;43.54
69009;SHT31;56065;52.472;13.380;2023-10-08T13:30:48;23.07;42.88
69009;SHT31;56065;52.472;13.380;2023-10-08T13:33:18;22.65;43.55
69009;SHT31;56065;52.472;13.380;2023-10-08T13:35:44;22.52;43.89
69009;SHT31;56065;52.472;13.380;2023-10-08T13:38:09;22.41;44.74
69009;SHT31;56065;52.472;13.380;2023-10-08T13:40:35;22.34;45.64
69009;SHT31;56065;52.472;13.380;2023-10-08T13:43:05;22.32;46.20
69009;SHT31;56065;52.472;13.380;2023-10-08T13:45:31;22.39;45.12
69009;SHT31;56065;52.472;13.380;2023-10-08T13:48:02;22.49;44.44
69009;SHT31;56065;52.472;13.380;2023-10-08T13:50:30;22.49;44.68
69009;SHT31;56065;52.472;13.380;2023-10-08T13:52:56;22.38;44.98
69009;SHT31;56065;52.472;13.380;2023-10-08T13:55:22;22.21;45.83
69009;SHT31;56065;52.472;13.380;2023-10-08T13:57:53;22.04;47.03
69009;SHT31;56065;52.472;13.380;2023-10-08T14:00:19;21.84;47.14
69009;SHT31;56065;52.472;13.380;2023-10-08T14:02:51;21.66;47.73
69009;SHT31;56065;52.472;13.380;2023-10-08T14:05:20;21.46;49.31
69009;SHT31;56065;52.472;13.380;2023-10-08T14:07:50;21.33;48.93
69009;SHT31;56065;52.472;13.380;2023-10-08T14:10:16;21.15;48.98
69009;SHT31;56065;52.472;13.380;2023-10-08T14:12:46;20.89;48.14
69009;SHT31;56065;52.472;13.380;2023-10-08T14:15:15;20.52;47.97
69009;SHT31;56065;52.472;13.380;2023-10-08T14:17:42;20.20;49.68
69009;SHT31;56065;52.472;13.380;2023-10-08T14:20:09;19.98;50.98
69009;SHT31;56065;52.472;13.380;2023-10-08T14:22:38;19.86;51.76
69009;SHT31;56065;52.472;13.380;2023-10-08T14:25:06;19.82;49.46
69009;SHT31;56065;52.472;13.380;2023-10-08T14:27:37;19.83;49.22
69009;SHT31;56065;52.472;13.380;2023-10-08T14:30:07;19.83;51.12
69009;SHT31;56065;52.472;13.380;2023-10-08T14:32:43;19.75;50.38
69009;SHT31;56065;52.472;13.380;2023-10-08T14:35:12;19.54;49.54
69009;SHT31;56065;52.472;13.380;2023-10-08T14:37:56;19.36;50.69
69009;SHT31;56065;52.472;13.380;2023-10-08T14:40:39;19.17;51.95
69009;SHT31;56065;52.472;13.380;2023-10-08T14:43:24;19.03;52.26
69009;SHT31;56065;52.472;13.380;2023-10-08T14:45:49;18.91;52.11
69009;SHT31;56065;52.472;13.380;2023-10-08T14:48:14;18.84;51.86
69009;SHT31;56065;52.472;13.380;2023-10-08T14:50:40;18.81;51.97
69009;SHT31;56065;52.472;13.380;2023-10-08T14:53:07;18.86;51.39
69009;SHT31;56065;52.472;13.380;2023-10-08T14:55:33;18.78;51.71
69009;SHT31;56065;52.472;13.380;2023-10-08T14:58:01;18.84;51.81
69009;SHT31;56065;52.472;13.380;2023-10-08T15:00:33;18.78;51.07
69009;SHT31;56065;52.472;13.380;2023-10-08T15:03:01;18.70;51.42
69009;SHT31;56065;52.472;13.380;2023-10-08T15:05:28;18.60;51.46
69009;SHT31;56065;52.472;13.380;2023-10-08T15:07:53;18.56;52.55
69009;SHT31;56065;52.472;13.380;2023-10-08T15:10:19;18.49;53.13
69009;SHT31;56065;52.472;13.380;2023-10-08T15:12:46;18.42;54.74
69009;SHT31;56065;52.472;13.380;2023-10-08T15:15:12;18.40;54.62
69009;SHT31;56065;52.472;13.380;2023-10-08T15:17:41;18.39;53.99
69009;SHT31;56065;52.472;13.380;2023-10-08T15:20:09;18.43;54.84
69009;SHT31;56065;52.472;13.380;2023-10-08T15:22:46;18.36;54.07
69009;SHT31;56065;52.472;13.380;2023-10-08T15:25:13;18.32;54.83
69009;SHT31;56065;52.472;13.380;2023-10-08T15:27:39;18.29;54.76
69009;SHT31;56065;52.472;13.380;2023-10-08T15:30:09;18.29;54.51
69009;SHT31;56065;52.472;13.380;2023-10-08T15:32:37;18.21;55.05
69009;SHT31;56065;52.472;13.380;2023-10-08T15:35:06;18.17;55.18
69009;SHT31;56065;52.472;13.380;2023-10-08T15:37:35;18.15;56.00
69009;SHT31;56065;52.472;13.380;2023-10-08T15:40:00;18.10;55.79
69009;SHT31;56065;52.472;13.380;2023-10-08T15:42:32;17.98;57.03
69009;SHT31;56065;52.472;13.380;2023-10-08T15:44:57;17.98;57.53